Time;durP1;ratioP1;P1;durP2;ratioP2;P2;SDS_P1;SDS_P2;PMS_P1;PMS_P2;Temp;Humidity;BMP_temperature;BMP_pressure;BME280_temperature;BME280_humidity;BME280_pressure;Samples;Min_cycle;Max_cycle;Signal;HPM_P1;HPM_P2
2021/06/10 00:00:16;;;;;;;1.27;0.35;;;14.20;99.90;;;;;;5110357;28;20072;-74
2021/06/10 00:02:42;;;;;;;0.65;0.43;;;14.10;99.90;;;;;;5116675;28;20107;-74
2021/06/10 00:05:09;;;;;;;1.10;0.22;;;14.20;99.90;;;;;;5116298;28;20039;-74
2021/06/10 00:07:35;;;;;;;0.40;0.22;;;14.10;99.90;;;;;;5115667;28;20377;-74
2021/06/10 00:10:01;;;;;;;0.20;0.15;;;14.10;99.90;;;;;;5104536;28;20031;-74
2021/06/10 00:12:26;;;;;;;1.00;0.25;;;14.10;99.90;;;;;;5096353;28;20421;-74
2021/06/10 00:14:52;;;;;;;2.17;0.20;;;14.10;99.90;;;;;;5077426;28;20119;-75
2021/06/10 00:17:18;;;;;;;1.13;0.10;;;14.00;99.90;;;;;;5077311;28;20020;-75
2021/06/10 00:19:44;;;;;;;2.40;0.30;;;14.00;99.90;;;;;;5095635;28;20567;-75
2021/06/10 00:22:09;;;;;;;2.13;0.32;;;14.10;99.90;;;;;;5094561;28;20076;-74
2021/06/10 00:24:35;;;;;;;1.20;0.17;;;14.00;99.90;;;;;;5095237;28;20461;-74
2021/06/10 00:27:01;;;;;;;0.68;0.30;;;14.00;99.90;;;;;;5095070;28;20499;-74
2021/06/10 00:29:26;;;;;;;1.02;0.28;;;14.00;99.90;;;;;;5095123;28;20023;-74
2021/06/10 00:31:52;;;;;;;0.73;0.38;;;14.00;99.90;;;;;;5095239;28;20026;-74
2021/06/10 00:34:18;;;;;;;2.38;0.10;;;14.10;99.90;;;;;;5076801;28;20070;-74
2021/06/10 00:36:43;;;;;;;6.18;0.68;;;14.10;99.90;;;;;;5095119;28;20024;-75
2021/06/10 00:39:09;;;;;;;0.77;0.20;;;14.00;99.90;;;;;;5094805;28;20028;-74
2021/06/10 00:41:37;;;;;;;1.02;0.50;;;14.10;99.90;;;;;;5094617;28;20107;-75
2021/06/10 00:44:05;;;;;;;0.30;0.22;;;14.30;99.90;;;;;;5076574;28;20032;-75
2021/06/10 00:46:31;;;;;;;;;;;14.00;99.90;;;;;;5095000;28;20042;-74
2021/06/10 00:48:57;;;;;;;2.15;0.38;;;14.00;99.90;;;;;;5094902;28;20341;-75
2021/06/10 00:51:23;;;;;;;2.92;0.50;;;14.00;99.90;;;;;;5077769;28;20031;-75
2021/06/10 00:53:49;;;;;;;0.30;0.10;;;13.90;99.90;;;;;;5120503;22;20396;-76
2021/06/10 00:56:14;;;;;;;0.60;0.20;;;13.90;99.90;;;;;;5113633;28;20076;-75
2021/06/10 00:58:40;;;;;;;1.77;0.40;;;13.90;99.90;;;;;;5116644;28;20026;-75
2021/06/10 01:01:07;;;;;;;0.30;0.20;;;13.90;99.90;;;;;;5113412;28;20373;-75
2021/06/10 01:03:35;;;;;;;5.50;0.70;;;13.80;99.90;;;;;;5116655;28;20012;-77
2021/06/10 01:06:10;;;;;;;1.92;0.20;;;13.80;99.90;;;;;;5115624;28;20033;-77
2021/06/10 01:08:46;;;;;;;2.08;0.50;;;13.80;99.90;;;;;;5122271;28;20537;-75
2021/06/10 01:11:38;;;;;;;0.88;0.35;;;13.70;99.90;;;;;;5116402;28;20086;-77
2021/06/10 01:14:09;;;;;;;1.42;0.30;;;13.70;99.90;;;;;;5115828;28;20030;-75
2021/06/10 01:16:37;;;;;;;1.15;0.25;;;13.70;99.90;;;;;;5114751;28;20019;-75
2021/06/10 01:19:11;;;;;;;0.73;0.30;;;13.70;99.90;;;;;;5113270;28;20055;-75
2021/06/10 01:21:37;;;;;;;0.45;0.30;;;13.60;99.90;;;;;;5114666;27;20106;-75
2021/06/10 01:24:34;;;;;;;0.77;0.30;;;13.60;99.90;;;;;;5113678;28;20008;-75
2021/06/10 01:27:11;;;;;;;1.58;0.20;;;13.50;99.90;;;;;;5114315;28;20033;-72
2021/06/10 01:29:39;;;;;;;2.35;0.30;;;13.50;99.90;;;;;;5113076;28;20077;-74
2021/06/10 01:32:06;;;;;;;0.82;0.30;;;13.50;99.90;;;;;;5114172;28;20020;-74
2021/06/10 01:34:33;;;;;;;1.10;0.30;;;13.40;99.90;;;;;;5113408;28;20533;-75
2021/06/10 01:37:00;;;;;;;0.80;0.32;;;13.40;99.90;;;;;;5112323;28;20144;-74
2021/06/10 01:39:28;;;;;;;1.27;0.35;;;13.40;99.90;;;;;;5115170;28;20032;-74
2021/06/10 01:41:56;;;;;;;0.65;0.40;;;13.30;99.90;;;;;;5114065;28;20020;-74
2021/06/10 01:44:23;;;;;;;2.63;0.47;;;13.30;99.90;;;;;;5112768;28;20019;-74
2021/06/10 01:46:52;;;;;;;2.65;0.85;;;13.30;99.90;;;;;;5112778;28;20022;-74
2021/06/10 01:49:19;;;;;;;2.00;0.50;;;13.30;99.90;;;;;;5114762;28;20027;-77
2021/06/10 01:51:46;;;;;;;1.30;0.60;;;13.30;99.90;;;;;;5115601;28;20015;-76
2021/06/10 01:54:14;;;;;;;1.15;0.50;;;13.30;99.90;;;;;;5114563;28;20032;-74
2021/06/10 01:56:41;;;;;;;1.33;0.50;;;13.20;99.90;;;;;;5112701;28;20024;-75
2021/06/10 01:59:08;;;;;;;2.42;0.45;;;13.30;99.90;;;;;;5114044;28;20483;-74
2021/06/10 02:01:35;;;;;;;2.25;0.70;;;13.20;99.90;;;;;;5114278;28;20472;-74
2021/06/10 02:04:03;;;;;;;2.53;0.65;;;13.20;99.90;;;;;;5113996;28;20031;-75
2021/06/10 02:06:30;;;;;;;3.00;0.77;;;13.10;99.90;;;;;;5117574;28;20038;-79
2021/06/10 02:08:57;;;;;;;2.92;0.40;;;13.10;99.90;;;;;;5135753;22;20092;-75
2021/06/10 02:11:23;;;;;;;4.05;0.85;;;13.10;99.90;;;;;;5115764;28;20023;-75
2021/06/10 02:13:49;;;;;;;0.75;0.60;;;13.10;99.90;;;;;;5115780;28;20475;-75
2021/06/10 02:16:17;;;;;;;0.73;0.60;;;13.10;99.90;;;;;;5134046;28;20012;-75
2021/06/10 02:18:45;;;;;;;1.67;0.55;;;13.00;99.90;;;;;;5134210;28;20031;-75
2021/06/10 02:21:13;;;;;;;3.33;1.25;;;13.00;99.90;;;;;;5115692;28;20024;-75
2021/06/10 02:23:40;;;;;;;1.33;1.05;;;13.00;99.90;;;;;;5134809;28;20015;-75
2021/06/10 02:26:07;;;;;;;1.98;0.80;;;12.90;99.90;;;;;;5115514;28;20012;-75
2021/06/10 02:28:33;;;;;;;2.17;0.90;;;12.90;99.90;;;;;;5115701;28;20034;-75
2021/06/10 02:31:00;;;;;;;2.85;1.13;;;12.80;99.90;;;;;;5133931;28;20386;-74
2021/06/10 02:33:26;;;;;;;1.30;0.85;;;12.80;99.90;;;;;;5134000;28;20024;-74
2021/06/10 02:35:52;;;;;;;2.33;1.20;;;12.80;99.90;;;;;;5134035;28;20027;-75
2021/06/10 02:38:19;;;;;;;4.60;0.75;;;12.80;99.90;;;;;;5134146;28;20102;-75
2021/06/10 02:40:48;;;;;;;1.42;1.02;;;12.80;99.90;;;;;;5134196;28;20480;-74
2021/06/10 02:43:14;;;;;;;1.30;1.10;;;12.80;99.90;;;;;;5134289;28;20543;-74
2021/06/10 02:45:43;;;;;;;3.53;1.05;;;12.80;99.90;;;;;;5136216;27;20043;-74
2021/06/10 02:48:10;;;;;;;1.90;1.20;;;12.80;99.90;;;;;;5138032;27;20019;-74
2021/06/10 02:50:40;;;;;;;1.73;0.90;;;12.80;99.90;;;;;;5137961;27;20030;-74
2021/06/10 02:53:14;;;;;;;1.35;0.93;;;12.70;99.90;;;;;;5138437;27;20092;-74
2021/06/10 02:55:41;;;;;;;2.85;1.42;;;12.70;99.90;;;;;;5119360;27;20031;-75
2021/06/10 02:58:08;;;;;;;3.00;1.15;;;12.80;99.90;;;;;;5137797;27;20043;-75
2021/06/10 03:00:34;;;;;;;1.98;1.05;;;12.80;99.90;;;;;;5138033;27;20114;-74
2021/06/10 03:03:01;;;;;;;1.95;1.20;;;12.80;99.90;;;;;;5137801;27;20073;-74
2021/06/10 03:05:31;;;;;;;2.00;0.98;;;12.80;99.90;;;;;;5137682;27;20027;-74
2021/06/10 03:07:57;;;;;;;1.65;1.13;;;12.70;99.90;;;;;;5119245;27;20055;-74
2021/06/10 03:10:25;;;;;;;3.63;1.23;;;12.70;99.90;;;;;;5137477;27;20031;-73
2021/06/10 03:12:51;;;;;;;2.30;1.17;;;12.70;99.90;;;;;;5138033;27;20030;-74
2021/06/10 03:15:17;;;;;;;2.45;1.10;;;12.70;99.90;;;;;;5137623;27;20487;-74
2021/06/10 03:17:43;;;;;;;3.22;1.15;;;12.60;99.90;;;;;;5138333;27;20015;-74
2021/06/10 03:20:09;;;;;;;1.70;1.60;;;12.60;99.90;;;;;;5137629;27;20030;-75
2021/06/10 03:22:36;;;;;;;3.25;1.08;;;12.60;99.90;;;;;;5119054;27;20391;-76
2021/06/10 03:25:04;;;;;;;3.92;1.90;;;12.60;99.90;;;;;;5138815;27;20019;-76
2021/06/10 03:27:31;;;;;;;3.92;2.38;;;12.60;99.90;;;;;;5119509;27;20031;-79
2021/06/10 03:29:57;;;;;;;2.80;1.80;;;12.60;99.90;;;;;;5119509;27;20080;-75
2021/06/10 03:32:24;;;;;;;3.35;1.90;;;12.70;99.90;;;;;;5137891;27;20031;-76
2021/06/10 03:34:50;;;;;;;2.53;1.85;;;12.70;99.90;;;;;;5137208;27;20376;-76
2021/06/10 03:37:16;;;;;;;4.57;1.63;;;12.70;99.90;;;;;;5117913;27;20023;-75
2021/06/10 03:39:42;;;;;;;4.25;1.83;;;12.80;99.90;;;;;;5116456;27;20059;-74
2021/06/10 03:44:43;;;;;;;3.45;1.42;;;12.80;99.90;;;;;;5160180;22;20055;-76
2021/06/10 03:47:13;;;;;;;5.82;2.03;;;12.80;99.90;;;;;;5118615;28;20024;-76
2021/06/10 03:49:39;;;;;;;3.60;2.17;;;12.80;99.90;;;;;;5118149;27;20061;-80
2021/06/10 03:52:05;;;;;;;3.30;1.92;;;12.80;99.90;;;;;;5118572;28;20095;-78
2021/06/10 03:54:31;;;;;;;5.85;2.22;;;12.80;99.90;;;;;;5115117;28;20493;-77
2021/06/10 03:56:56;;;;;;;4.15;2.00;;;12.80;99.90;;;;;;5117023;28;20024;-76
2021/06/10 03:59:22;;;;;;;3.85;2.03;;;12.80;99.90;;;;;;5118010;28;20024;-76
2021/06/10 04:01:48;;;;;;;4.18;2.28;;;12.90;99.90;;;;;;5118101;28;20027;-78
2021/06/10 04:04:14;;;;;;;3.63;2.10;;;12.90;99.90;;;;;;5102924;28;20024;-78
2021/06/10 04:06:40;;;;;;;4.32;2.33;;;13.00;99.90;;;;;;5096053;28;20568;-78
2021/06/10 04:09:08;;;;;;;3.65;2.42;;;13.10;99.90;;;;;;5097062;28;20533;-77
2021/06/10 04:11:34;;;;;;;3.92;2.88;;;13.20;99.90;;;;;;5097209;28;20035;-78
2021/06/10 04:14:00;;;;;;;4.15;2.40;;;13.20;99.90;;;;;;5094973;28;20173;-76
2021/06/10 04:16:26;;;;;;;5.82;2.95;;;13.30;99.90;;;;;;5097399;28;20508;-78
2021/06/10 04:18:53;;;;;;;6.45;2.92;;;13.50;99.90;;;;;;5095519;28;20027;-76
2021/06/10 04:21:19;;;;;;;5.72;2.72;;;13.50;99.90;;;;;;5098021;28;20067;-78
2021/06/10 04:23:46;;;;;;;6.55;3.50;;;13.60;99.90;;;;;;5099412;28;20020;-78
2021/06/10 04:26:12;;;;;;;5.25;3.13;;;13.70;99.90;;;;;;5099826;28;20020;-77
2021/06/10 04:28:38;;;;;;;8.82;4.22;;;13.90;99.90;;;;;;5098652;28;20027;-77
2021/06/10 04:31:03;;;;;;;5.90;3.72;;;14.00;99.90;;;;;;5096167;28;20110;-78
2021/06/10 04:33:29;;;;;;;5.78;3.53;;;14.00;99.90;;;;;;5096658;28;20028;-77
2021/06/10 04:35:55;;;;;;;8.20;3.95;;;14.20;99.90;;;;;;5096124;28;20400;-77
2021/06/10 04:38:20;;;;;;;6.22;3.67;;;14.30;99.90;;;;;;5224856;22;20035;-77
2021/06/10 04:40:46;;;;;;;7.68;4.30;;;14.40;99.90;;;;;;5120624;22;20044;-78
2021/06/10 04:43:12;;;;;;;4.70;3.15;;;14.50;99.90;;;;;;5096357;28;20024;-79
2021/06/10 04:45:38;;;;;;;8.95;5.00;;;14.60;99.90;;;;;;5078239;28;20598;-77
2021/06/10 04:48:04;;;;;;;8.15;4.03;;;14.70;99.90;;;;;;5077649;28;20028;-79
2021/06/10 04:50:31;;;;;;;9.32;4.57;;;14.80;99.90;;;;;;5098438;28;20024;-79
2021/06/10 04:52:57;;;;;;;7.72;4.60;;;14.90;99.90;;;;;;5098750;28;20024;-77
2021/06/10 04:55:23;;;;;;;7.68;4.50;;;15.10;99.90;;;;;;5100909;28;20067;-78
2021/06/10 04:57:49;;;;;;;7.00;4.60;;;15.20;99.90;;;;;;5097833;28;20554;-80
2021/06/10 05:00:15;;;;;;;7.53;5.32;;;15.30;99.90;;;;;;5098161;28;20032;-77
2021/06/10 05:02:40;;;;;;;7.38;4.60;;;15.40;99.90;;;;;;5077421;28;20020;-77
2021/06/10 05:05:07;;;;;;;9.82;4.80;;;15.60;99.90;;;;;;5090184;22;20086;-78
2021/06/10 05:07:33;;;;;;;8.93;4.68;;;15.70;99.90;;;;;;5075824;28;20096;-77
2021/06/10 05:10:10;;;;;;;7.47;4.90;;;15.80;99.90;;;;;;5309774;22;20036;-78
2021/06/10 05:12:36;;;;;;;11.52;4.85;;;15.80;99.90;;;;;;5124928;22;20400;-77
2021/06/10 05:15:03;;;;;;;8.23;4.97;;;16.10;99.90;;;;;;5096772;28;20059;-80
2021/06/10 05:17:29;;;;;;;7.00;4.60;;;16.30;99.90;;;;;;5079379;28;20028;-80
2021/06/10 05:19:54;;;;;;;8.70;4.88;;;16.40;99.90;;;;;;5077694;28;20459;-80
2021/06/10 05:22:20;;;;;;;9.73;4.45;;;16.50;99.90;;;;;;5097082;28;20012;-80
2021/06/10 05:24:45;;;;;;;11.77;5.20;;;17.00;99.90;;;;;;5097748;28;20024;-79
2021/06/10 05:27:11;;;;;;;7.55;4.45;;;16.80;99.90;;;;;;5097162;28;20082;-79
2021/06/10 05:29:38;;;;;;;15.63;5.13;;;16.90;99.90;;;;;;5096877;28;20020;-81
2021/06/10 05:32:04;;;;;;;13.38;4.45;;;17.00;99.90;;;;;;5097302;28;20476;-79
2021/06/10 05:34:30;;;;;;;10.75;4.03;;;17.20;99.90;;;;;;5097424;28;20044;-80
2021/06/10 05:36:55;;;;;;;6.45;3.47;;;18.50;99.90;;;;;;5079220;28;20027;-79
2021/06/10 05:39:21;;;;;;;5.68;3.00;;;17.60;99.90;;;;;;5096722;28;20027;-80
2021/06/10 05:41:47;;;;;;;6.10;3.03;;;17.70;99.90;;;;;;5079146;28;20047;-80
2021/06/10 05:44:13;;;;;;;9.00;3.33;;;18.20;99.90;;;;;;5130457;22;20032;-87
2021/06/10 05:46:39;;;;;;;10.10;3.88;;;19.90;99.90;;;;;;5086628;28;20055;-87
2021/06/10 05:49:05;;;;;;;5.75;3.65;;;19.70;99.90;;;;;;5065378;28;20013;-86
2021/06/10 05:51:31;;;;;;;4.25;2.83;;;18.20;99.90;;;;;;5103136;28;20103;-89
2021/06/10 05:53:56;;;;;;;12.18;3.22;;;19.30;99.90;;;;;;5096587;28;20035;-87
2021/06/10 05:56:22;;;;;;;7.95;4.05;;;18.30;99.90;;;;;;5076411;28;20032;-89
2021/06/10 05:58:47;;;;;;;7.40;3.22;;;18.50;99.90;;;;;;5077815;28;20505;-87
2021/06/10 06:01:16;;;;;;;5.28;3.40;;;18.60;99.90;;;;;;5086187;28;20036;-88
2021/06/10 06:03:42;;;;;;;5.78;3.10;;;18.60;99.90;;;;;;5061811;28;20016;-88
2021/06/10 06:06:08;;;;;;;7.80;2.90;;;19.20;99.90;;;;;;5068367;28;20022;-89
2021/06/10 06:08:34;;;;;;;9.30;3.60;;;18.90;99.90;;;;;;5057490;28;20017;-90
2021/06/10 06:11:00;;;;;;;6.70;3.28;;;18.90;99.90;;;;;;5063331;28;20503;-89
2021/06/10 06:13:45;;;;;;;6.95;3.40;;;19.10;99.90;;;;;;5076974;28;20031;-90
2021/06/10 06:16:14;;;;;;;4.05;2.30;;;19.10;99.90;;;;;;5076164;28;20081;-89
2021/06/10 06:18:40;;;;;;;6.65;2.10;;;19.20;99.90;;;;;;5077301;28;20396;-90
2021/06/10 06:21:07;;;;;;;6.88;1.73;;;19.30;99.90;;;;;;5063295;28;20028;-91
2021/06/10 06:23:33;;;;;;;3.00;1.90;;;19.30;99.50;;;;;;5099108;28;20024;-90
2021/06/10 06:26:00;;;;;;;6.75;1.75;;;19.30;97.90;;;;;;5078921;28;20481;-89
2021/06/10 06:28:27;;;;;;;4.65;0.82;;;19.40;98.40;;;;;;5062476;28;20431;-90
2021/06/10 06:30:53;;;;;;;3.35;2.15;;;19.50;99.00;;;;;;5081306;28;20029;-90
2021/06/10 06:33:19;;;;;;;1.67;1.00;;;19.70;97.10;;;;;;5069379;28;20023;-90
2021/06/10 06:35:50;;;;;;;3.28;1.45;;;19.50;96.70;;;;;;5081684;28;20028;-91
2021/06/10 06:38:18;;;;;;;2.15;0.90;;;19.90;93.00;;;;;;5080705;28;20162;-90
2021/06/10 06:40:48;;;;;;;1.75;0.68;;;20.00;93.30;;;;;;5080199;28;20108;-91
2021/06/10 06:43:20;;;;;;;3.15;0.52;;;20.10;90.40;;;;;;5080512;28;20060;-89
2021/06/10 06:45:48;;;;;;;2.22;0.40;;;17.30;85.90;;;;;;5080579;28;20037;-90
2021/06/10 06:48:34;;;;;;;3.33;0.82;;;21.90;85.90;;;;;;5078823;28;20074;-90
2021/06/10 06:51:15;;;;;;;2.60;0.85;;;21.50;87.60;;;;;;5061327;28;20066;-91
2021/06/10 06:54:00;;;;;;;2.88;0.30;;;20.70;84.60;;;;;;5060673;28;20082;-90
2021/06/10 06:56:28;;;;;;;2.28;0.40;;;18.70;82.60;;;;;;5060900;28;20024;-90
2021/06/10 06:58:58;;;;;;;1.75;0.10;;;21.00;77.60;;;;;;5060695;28;20044;-90
2021/06/10 07:01:24;;;;;;;1.75;0.25;;;23.10;76.30;;;;;;5060566;28;20541;-90
2021/06/10 07:03:50;;;;;;;4.22;0.38;;;21.30;78.50;;;;;;5060059;28;20067;-90
2021/06/10 07:06:19;;;;;;;1.38;0.10;;;23.60;78.80;;;;;;5078189;28;20023;-90
2021/06/10 07:08:54;;;;;;;0.93;0.10;;;21.00;75.90;;;;;;5061209;28;20028;-90
2021/06/10 07:11:19;;;;;;;1.42;0.22;;;25.10;77.90;;;;;;5061102;28;20035;-88
2021/06/10 07:13:47;;;;;;;1.20;0.10;;;24.50;78.00;;;;;;5060643;28;20032;-89
2021/06/10 07:16:18;;;;;;;2.70;0.60;;;20.60;72.50;;;;;;5061362;28;20024;-88
2021/06/10 07:18:46;;;;;;;0.43;0.10;;;20.90;70.40;;;;;;5078206;28;20020;-88
2021/06/10 07:21:15;;;;;;;3.20;0.22;;;21.80;69.00;;;;;;5077834;28;20028;-88
2021/06/10 07:24:07;;;;;;;0.47;0.00;;;23.60;70.10;;;;;;5059935;28;20118;-90
2021/06/10 07:26:37;;;;;;;0.75;0.00;;;21.20;61.90;;;;;;5055548;28;20074;-88
2021/06/10 07:29:14;;;;;;;1.05;0.00;;;22.70;66.80;;;;;;5061033;28;20028;-89
2021/06/10 07:32:01;;;;;;;1.73;0.00;;;21.80;62.10;;;;;;5061377;28;20040;-88
2021/06/10 07:34:48;;;;;;;3.70;0.10;;;21.80;62.00;;;;;;5051866;28;20067;-87
2021/06/10 07:37:27;;;;;;;0.28;0.00;;;24.30;61.00;;;;;;5061497;28;20039;-92
2021/06/10 07:39:55;;;;;;;1.30;0.00;;;22.70;62.20;;;;;;5061258;28;20134;-91
2021/06/10 07:42:21;;;;;;;0.88;0.70;;;25.40;63.40;;;;;;5078673;28;20024;-90
2021/06/10 07:44:47;;;;;;;2.13;0.00;;;23.70;65.10;;;;;;5079014;28;20021;-90
2021/06/10 07:47:35;;;;;;;0.55;0.15;;;22.40;64.40;;;;;;5061984;28;20059;-90
2021/06/10 07:50:08;;;;;;;1.85;0.00;;;22.40;64.40;;;;;;5077618;28;20031;-90
2021/06/10 07:58:44;;;;;;;2.08;0.45;;;23.10;61.40;;;;;;5040047;28;20406;-89
2021/06/10 08:01:57;;;;;;;0.65;0.25;;;23.30;65.20;;;;;;5059902;28;20056;-88
2021/06/10 08:04:57;;;;;;;0.20;0.10;;;19.90;59.40;;;;;;5076624;28;20405;-89
2021/06/10 08:11:42;;;;;;;0.82;0.30;;;23.50;63.60;;;;;;5046063;28;20035;-88
2021/06/10 08:14:14;;;;;;;3.17;1.38;;;24.00;65.30;;;;;;5058867;28;20024;-88
2021/06/10 08:16:40;;;;;;;2.00;0.30;;;23.90;62.80;;;;;;5060288;28;20031;-89
2021/06/10 08:19:57;;;;;;;1.48;0.73;;;23.20;69.00;;;;;;5061783;28;20020;-89
2021/06/10 08:22:55;;;;;;;3.88;1.60;;;24.30;65.40;;;;;;4980289;28;20049;-91
2021/06/10 08:25:21;;;;;;;5.45;1.23;;;23.20;65.80;;;;;;4997096;28;20114;-88
2021/06/10 08:27:49;;;;;;;7.75;1.38;;;23.70;69.10;;;;;;4992318;28;20010;-89
2021/06/10 08:30:21;;;;;;;4.85;2.10;;;22.70;67.80;;;;;;4985664;28;20507;-87
2021/06/10 08:36:29;;;;;;;6.40;1.48;;;23.90;65.20;;;;;;5061800;28;20028;-87
2021/06/10 08:39:23;;;;;;;6.35;1.75;;;23.80;69.20;;;;;;5059385;28;20111;-88
2021/06/10 08:42:36;;;;;;;;;;;;;;;;;;;;;
2021/06/10 08:45:03;;;;;;;2.72;1.55;;;24.00;70.10;;;;;;5078631;28;20104;-88
2021/06/10 08:47:53;;;;;;;1.63;1.50;;;23.90;70.80;;;;;;5064576;28;20085;-90
2021/06/10 08:50:23;;;;;;;3.00;1.95;;;24.10;70.10;;;;;;5061529;28;20032;-90
2021/06/10 08:53:21;;;;;;;3.53;1.63;;;27.30;71.00;;;;;;5059439;28;20025;-90
2021/06/10 08:55:51;;;;;;;2.63;1.60;;;24.40;67.40;;;;;;5076465;28;20031;-90
2021/06/10 08:58:17;;;;;;;4.45;2.40;;;25.20;70.70;;;;;;5057851;28;20025;-90
2021/06/10 09:00:43;;;;;;;7.82;2.15;;;25.70;69.90;;;;;;5076278;28;20020;-90
2021/06/10 09:03:43;;;;;;;4.53;2.38;;;24.70;66.20;;;;;;5058328;28;20028;-89
2021/06/10 09:06:18;;;;;;;6.38;2.70;;;24.80;66.70;;;;;;5045516;28;20029;-90
2021/06/10 09:08:46;;;;;;;5.68;2.55;;;26.90;68.20;;;;;;5076641;28;20052;-90
2021/06/10 09:12:09;;;;;;;;;;;;;;;;;;;;;
2021/06/10 09:14:58;;;;;;;7.28;2.35;;;21.50;65.90;;;;;;5108528;22;20061;-78
2021/06/10 09:17:34;;;;;;;2.60;1.67;;;24.50;66.50;;;;;;5120574;27;20479;-79
2021/06/10 09:20:01;;;;;;;3.15;1.40;;;24.60;67.30;;;;;;5139052;27;20027;-78
2021/06/10 09:22:35;;;;;;;4.20;1.98;;;24.70;66.20;;;;;;5117993;27;20050;-77
2021/06/10 09:25:07;;;;;;;5.40;2.10;;;24.70;65.70;;;;;;5136439;27;20106;-76
2021/06/10 09:27:33;;;;;;;8.48;3.45;;;24.80;65.00;;;;;;5135008;27;20015;-75
2021/06/10 09:30:00;;;;;;;4.65;1.90;;;24.80;62.40;;;;;;5135040;27;20027;-75
2021/06/10 09:32:30;;;;;;;1.85;1.30;;;24.70;63.40;;;;;;5116643;27;20051;-75
2021/06/10 09:35:03;;;;;;;3.50;1.65;;;24.70;64.60;;;;;;5134943;27;20027;-75
2021/06/10 09:37:33;;;;;;;2.72;1.70;;;24.90;61.30;;;;;;5116566;27;20058;-76
2021/06/10 09:40:01;;;;;;;4.72;1.85;;;24.90;62.30;;;;;;5116279;27;20115;-75
2021/06/10 09:42:33;;;;;;;2.08;1.60;;;24.90;62.60;;;;;;5135012;27;20019;-75
2021/06/10 09:45:01;;;;;;;2.85;0.95;;;25.00;61.70;;;;;;5116334;27;20080;-75
2021/06/10 09:47:34;;;;;;;1.33;0.63;;;25.10;60.50;;;;;;5116253;27;20439;-75
2021/06/10 09:50:27;;;;;;;3.42;1.05;;;25.20;58.90;;;;;;5134800;27;20057;-79
2021/06/10 09:52:57;;;;;;;3.40;0.80;;;25.30;57.40;;;;;;5135480;27;20019;-76
2021/06/10 09:55:30;;;;;;;1.75;0.40;;;25.40;56.20;;;;;;5133809;27;20030;-76
2021/06/10 09:57:57;;;;;;;1.33;0.13;;;24.90;52.80;;;;;;5134659;27;20364;-76
2021/06/10 10:00:32;;;;;;;0.88;0.30;;;25.00;54.00;;;;;;5136853;27;20068;-78
2021/06/10 10:02:58;;;;;;;2.33;0.40;;;25.10;51.10;;;;;;5116719;28;20106;-77
2021/06/10 10:05:25;;;;;;;4.13;0.30;;;25.20;52.40;;;;;;5134988;27;20049;-76
2021/06/10 10:07:53;;;;;;;2.20;0.60;;;25.30;55.80;;;;;;5117536;27;20061;-76
2021/06/10 10:10:19;;;;;;;2.17;0.52;;;25.30;52.60;;;;;;5135114;27;20048;-78
2021/06/10 10:12:47;;;;;;;1.35;0.32;;;25.10;51.40;;;;;;5115924;27;20365;-78
2021/06/10 10:15:14;;;;;;;1.30;0.30;;;24.80;51.70;;;;;;5115998;28;20061;-78
2021/06/10 10:17:40;;;;;;;0.93;0.40;;;24.90;52.90;;;;;;5115749;28;20030;-78
2021/06/10 10:20:08;;;;;;;2.08;0.63;;;25.10;53.60;;;;;;5134317;28;20027;-78
2021/06/10 10:22:37;;;;;;;3.00;0.90;;;25.20;54.20;;;;;;5135030;28;20474;-78
2021/06/10 10:25:04;;;;;;;1.95;0.10;;;25.40;50.10;;;;;;5134327;28;20550;-78
2021/06/10 10:27:30;;;;;;;1.95;0.90;;;25.60;53.50;;;;;;5115868;28;20433;-78
2021/06/10 10:29:59;;;;;;;1.77;0.40;;;25.60;49.90;;;;;;5134496;28;20054;-78
2021/06/10 10:32:27;;;;;;;1.48;0.63;;;25.60;52.80;;;;;;5134249;28;20023;-78
2021/06/10 10:34:53;;;;;;;1.10;0.47;;;25.70;48.50;;;;;;5134350;28;20083;-78
2021/06/10 10:37:25;;;;;;;0.85;0.28;;;25.90;48.70;;;;;;5115843;28;20018;-76
2021/06/10 10:39:53;;;;;;;0.80;0.30;;;25.80;45.80;;;;;;5116032;28;20026;-77
2021/06/10 10:42:30;;;;;;;1.13;0.10;;;25.80;46.30;;;;;;5115886;28;20030;-76
2021/06/10 10:45:12;;;;;;;1.35;0.20;;;25.80;43.50;;;;;;5147739;22;20518;-76
2021/06/10 10:47:43;;;;;;;4.25;0.82;;;25.90;44.80;;;;;;5093043;28;20385;-77
2021/06/10 10:50:09;;;;;;;0.73;0.22;;;26.10;45.00;;;;;;5093305;28;20477;-77
2021/06/10 10:52:39;;;;;;;3.60;0.10;;;26.10;45.10;;;;;;5093570;28;20025;-78
2021/06/10 10:55:30;;;;;;;1.20;0.10;;;26.30;46.00;;;;;;5093572;28;20393;-76
2021/06/10 10:58:18;;;;;;;1.50;0.08;;;26.50;43.80;;;;;;5093077;28;20069;-76
2021/06/10 11:01:01;;;;;;;0.80;0.25;;;26.70;41.80;;;;;;5093028;28;20032;-76
2021/06/10 11:03:42;;;;;;;3.28;0.20;;;26.70;40.70;;;;;;5108964;28;20023;-76
2021/06/10 11:06:25;;;;;;;0.98;0.35;;;26.80;40.70;;;;;;5094845;28;20027;-76
2021/06/10 11:09:16;;;;;;;1.02;0.10;;;27.10;39.80;;;;;;5096901;28;20016;-76
2021/06/10 11:11:51;;;;;;;0.90;0.50;;;27.30;40.40;;;;;;5096925;28;20125;-76
2021/06/10 11:14:52;;;;;;;1.27;0.10;;;27.30;38.70;;;;;;5097058;28;20110;-76
2021/06/10 11:17:24;;;;;;;1.45;0.00;;;27.50;37.50;;;;;;5089118;28;20132;-77
2021/06/10 11:19:50;;;;;;;1.10;0.10;;;27.90;39.20;;;;;;5096914;28;20040;-76
2021/06/10 11:22:29;;;;;;;2.92;0.15;;;28.10;38.40;;;;;;5097005;28;20372;-76
2021/06/10 11:24:54;;;;;;;3.45;0.30;;;28.50;37.50;;;;;;5096739;28;20027;-76
2021/06/10 11:27:32;;;;;;;1.98;0.43;;;28.40;39.10;;;;;;5095293;28;20020;-76
2021/06/10 11:30:24;;;;;;;1.10;0.40;;;28.50;37.50;;;;;;5095257;28;20016;-76
2021/06/10 11:33:21;;;;;;;1.92;0.60;;;28.80;38.90;;;;;;5096616;28;20063;-76
2021/06/10 11:35:50;;;;;;;;;;;29.10;38.60;;;;;;5095449;28;20499;-76
2021/06/10 11:38:23;;;;;;;1.35;0.80;;;29.60;38.70;;;;;;5097414;28;19927;-76
2021/06/10 11:41:13;;;;;;;2.22;0.73;;;29.80;36.80;;;;;;5122910;22;20043;-76
2021/06/10 11:43:41;;;;;;;2.30;0.10;;;29.80;37.00;;;;;;5133947;22;20112;-76
2021/06/10 11:46:11;;;;;;;2.63;0.55;;;29.80;37.20;;;;;;5115434;28;20027;-76
2021/06/10 11:48:44;;;;;;;0.20;0.20;;;29.90;39.60;;;;;;5117396;28;20019;-76
2021/06/10 11:51:27;;;;;;;0.28;0.10;;;30.10;35.90;;;;;;5116366;28;20031;-76
2021/06/10 11:53:56;;;;;;;1.55;0.30;;;29.90;36.10;;;;;;5116135;28;20464;-76
2021/06/10 11:56:25;;;;;;;2.47;0.28;;;29.40;38.10;;;;;;5116397;28;20364;-76
2021/06/10 11:58:53;;;;;;;1.52;0.30;;;29.50;36.60;;;;;;5116238;28;20472;-75
2021/06/10 12:01:18;;;;;;;1.77;0.35;;;29.60;37.60;;;;;;5114808;28;20114;-75
2021/06/10 12:03:45;;;;;;;0.60;0.10;;;29.70;35.90;;;;;;5116270;28;20112;-75
2021/06/10 12:06:16;;;;;;;1.98;0.00;;;30.10;37.40;;;;;;5116072;28;20103;-75
2021/06/10 12:08:45;;;;;;;1.02;0.30;;;30.50;39.10;;;;;;5116044;28;20070;-75
2021/06/10 12:11:14;;;;;;;1.35;0.17;;;30.70;37.60;;;;;;5115988;28;20043;-75
2021/06/10 12:13:40;;;;;;;0.70;0.30;;;30.70;35.50;;;;;;5115927;28;20026;-75
2021/06/10 12:16:08;;;;;;;1.90;0.35;;;30.80;36.10;;;;;;5115609;28;20019;-75
2021/06/10 12:18:36;;;;;;;3.63;0.50;;;30.90;35.00;;;;;;5116235;28;20110;-77
2021/06/10 12:21:06;;;;;;;1.30;0.38;;;30.20;34.50;;;;;;5100984;28;20119;-75
2021/06/10 12:23:38;;;;;;;0.70;0.32;;;30.10;34.10;;;;;;5095191;28;20477;-75
2021/06/10 12:26:09;;;;;;;2.05;0.65;;;30.50;36.60;;;;;;5095506;28;20020;-75
2021/06/10 12:28:35;;;;;;;1.27;0.73;;;30.60;35.20;;;;;;5095279;28;20089;-77
2021/06/10 12:31:00;;;;;;;5.15;1.38;;;30.60;35.30;;;;;;5099133;28;20465;-79
2021/06/10 12:33:26;;;;;;;1.45;0.52;;;30.50;33.20;;;;;;5098134;28;20028;-79
2021/06/10 12:35:56;;;;;;;2.00;0.50;;;30.60;34.40;;;;;;5094793;28;20024;-75
2021/06/10 12:39:08;;;;;;;2.38;0.88;;;31.00;37.00;;;;;;5095544;28;20024;-76
2021/06/10 12:41:47;;;;;;;1.67;0.68;;;31.30;34.90;;;;;;5071966;28;20065;-77
2021/06/10 12:44:31;;;;;;;1.20;0.45;;;32.10;34.50;;;;;;5095565;28;20389;-78
2021/06/10 12:47:01;;;;;;;1.05;0.52;;;32.70;35.50;;;;;;5094342;28;20115;-75
2021/06/10 12:49:54;;;;;;;1.42;0.43;;;32.80;35.00;;;;;;5093874;28;20035;-75
2021/06/10 12:52:20;;;;;;;2.88;1.60;;;32.70;34.40;;;;;;5095314;28;20024;-75
2021/06/10 12:54:48;;;;;;;3.20;1.17;;;32.50;33.40;;;;;;5093803;28;20028;-75
2021/06/10 12:57:22;;;;;;;2.97;1.00;;;32.20;34.50;;;;;;5094861;28;20539;-75
2021/06/10 12:59:57;;;;;;;4.90;1.25;;;32.50;34.20;;;;;;5094710;28;20058;-75
2021/06/10 13:02:25;;;;;;;2.78;0.73;;;32.60;34.30;;;;;;5094900;28;20055;-75
2021/06/10 13:04:55;;;;;;;1.50;0.75;;;32.80;34.80;;;;;;5094865;28;20078;-75
2021/06/10 13:07:33;;;;;;;3.08;1.67;;;33.00;34.70;;;;;;5093382;28;20514;-75
2021/06/10 13:10:05;;;;;;;2.40;1.25;;;32.70;33.00;;;;;;5095008;28;20035;-78
2021/06/10 13:12:33;;;;;;;2.85;1.88;;;32.80;33.90;;;;;;5095416;28;20047;-78
2021/06/10 13:15:00;;;;;;;2.60;1.23;;;32.70;33.00;;;;;;5095530;28;20032;-78
2021/06/10 13:17:47;;;;;;;3.00;2.10;;;32.40;35.10;;;;;;5094639;28;20385;-75
2021/06/10 13:20:14;;;;;;;1.20;1.08;;;32.50;33.70;;;;;;5094656;28;20024;-75
2021/06/10 13:22:39;;;;;;;2.78;1.30;;;32.40;34.30;;;;;;5093422;28;20016;-75
2021/06/10 13:25:07;;;;;;;6.35;1.58;;;32.70;34.90;;;;;;5094457;28;20384;-75